Time;durP1;ratioP1;P1;durP2;ratioP2;P2;SDS_P1;SDS_P2;PMS_P1;PMS_P2;Temp;Humidity;BMP_temperature;BMP_pressure;BME280_temperature;BME280_humidity;BME280_pressure;Samples;Min_cycle;Max_cycle;Signal;HPM_P1;HPM_P2
2023/01/25 00:02:03;;;;;;;29.10;15.63;;;;;;;;;;5045583;28;20234;-76
2023/01/25 00:04:30;;;;;;;23.97;15.47;;;;;;;;;;5058898;28;20198;-77
2023/01/25 00:06:57;;;;;;;31.20;18.97;;;;;;;;;;5068996;28;20198;-77
2023/01/25 00:09:25;;;;;;;25.20;13.63;;;;;;;;;;5061964;28;20197;-77
2023/01/25 00:11:55;;;;;;;26.43;13.73;;;;;;;;;;5074901;28;20294;-77
2023/01/25 00:14:22;;;;;;;21.77;13.53;;;;;;;;;;5074129;28;20217;-77
2023/01/25 00:16:49;;;;;;;23.00;14.87;;;;;;;;;;5057886;28;20198;-77
2023/01/25 00:19:17;;;;;;;23.40;14.00;;;;;;;;;;5049983;28;20592;-77
2023/01/25 00:21:44;;;;;;;27.73;14.37;;;;;;;;;;5055918;28;20371;-74
2023/01/25 00:24:13;;;;;;;23.73;12.97;;;;;;;;;;5052073;28;20213;-76
2023/01/25 00:26:42;;;;;;;24.67;14.30;;;;;;;;;;5049719;28;20205;-77
2023/01/25 00:29:13;;;;;;;25.10;14.03;;;;;;;;;;5049977;28;20224;-77
2023/01/25 00:31:47;;;;;;;28.30;15.13;;;;;;;;;;5046182;28;20221;-76
2023/01/25 00:34:17;;;;;;;32.43;14.27;;;;;;;;;;5050845;28;20199;-77
2023/01/25 00:36:44;;;;;;;26.23;14.00;;;;;;;;;;5048093;28;20201;-76
2023/01/25 00:39:13;;;;;;;30.20;14.70;;;;;;;;;;5049830;28;20229;-75
2023/01/25 00:41:40;;;;;;;24.73;14.43;;;;;;;;;;5050250;28;21329;-78
2023/01/25 00:44:07;;;;;;;30.03;14.97;;;;;;;;;;5049016;28;20234;-77
2023/01/25 00:46:35;;;;;;;28.30;14.83;;;;;;;;;;5050040;28;20202;-76
2023/01/25 00:49:02;;;;;;;27.23;13.93;;;;;;;;;;5051640;28;20233;-77
2023/01/25 00:51:29;;;;;;;22.83;13.57;;;;;;;;;;5052712;28;20723;-76
2023/01/25 00:53:57;;;;;;;35.53;13.90;;;;;;;;;;5048767;28;20228;-76
2023/01/25 00:56:24;;;;;;;27.87;14.10;;;;;;;;;;5053869;28;20580;-77
2023/01/25 00:58:51;;;;;;;28.70;15.00;;;;;;;;;;5045277;28;20356;-76
2023/01/25 01:01:18;;;;;;;39.47;15.10;;;;;;;;;;5050614;28;20218;-78
2023/01/25 01:03:46;;;;;;;30.83;14.53;;;;;;;;;;5049708;28;20205;-78
2023/01/25 01:06:13;;;;;;;33.97;15.40;;;;;;;;;;5048236;28;20214;-76
2023/01/25 01:08:41;;;;;;;33.67;15.70;;;;;;;;;;5048768;28;20302;-78
2023/01/25 01:11:09;;;;;;;34.47;15.43;;;;;;;;;;5048216;28;20717;-76
2023/01/25 01:13:36;;;;;;;25.97;14.07;;;;;;;;;;5051042;28;20313;-75
2023/01/25 01:16:07;;;;;;;34.80;15.63;;;;;;;;;;5050262;28;20201;-77
2023/01/25 01:18:35;;;;;;;33.33;15.13;;;;;;;;;;5050309;28;20306;-77
2023/01/25 01:21:03;;;;;;;29.50;14.43;;;;;;;;;;5050229;28;20242;-78
2023/01/25 01:23:31;;;;;;;24.37;14.13;;;;;;;;;;5048169;28;20274;-78
2023/01/25 01:26:02;;;;;;;29.53;14.70;;;;;;;;;;5052169;28;20206;-76
2023/01/25 01:28:30;;;;;;;52.53;15.67;;;;;;;;;;5046263;28;20297;-77
2023/01/25 01:31:04;;;;;;;31.33;14.77;;;;;;;;;;5054194;28;20233;-76
2023/01/25 01:33:31;;;;;;;36.47;15.77;;;;;;;;;;5056630;28;20304;-78
2023/01/25 01:36:11;;;;;;;34.93;15.97;;;;;;;;;;5065127;28;20218;-76
2023/01/25 01:38:39;;;;;;;26.47;15.17;;;;;;;;;;5059818;28;20236;-76
2023/01/25 01:41:06;;;;;;;35.40;15.70;;;;;;;;;;5072758;28;20312;-76
2023/01/25 01:43:34;;;;;;;32.20;15.90;;;;;;;;;;5061067;28;20758;-77
2023/01/25 01:46:24;;;;;;;37.13;15.53;;;;;;;;;;5049329;28;20202;-76
2023/01/25 01:48:57;;;;;;;35.33;14.90;;;;;;;;;;5041440;28;20751;-77
2023/01/25 01:51:42;;;;;;;46.20;17.07;;;;;;;;;;5045696;28;20231;-76
2023/01/25 01:54:16;;;;;;;46.83;15.50;;;;;;;;;;5051527;28;20212;-77
2023/01/25 01:56:43;;;;;;;38.40;13.87;;;;;;;;;;5054367;28;20206;-77
2023/01/25 01:59:11;;;;;;;41.90;14.03;;;;;;;;;;5041690;28;20225;-78
2023/01/25 02:01:39;;;;;;;27.73;14.67;;;;;;;;;;5048056;28;20229;-77
2023/01/25 02:04:07;;;;;;;28.87;14.67;;;;;;;;;;5052161;28;20202;-78
2023/01/25 02:06:46;;;;;;;40.77;16.53;;;;;;;;;;5067782;28;20202;-77
2023/01/25 02:09:15;;;;;;;49.87;16.47;;;;;;;;;;5068924;28;20723;-77
2023/01/25 02:11:44;;;;;;;38.43;15.00;;;;;;;;;;5063407;28;20233;-76
2023/01/25 02:14:11;;;;;;;52.17;15.37;;;;;;;;;;5068361;28;20208;-78
2023/01/25 02:16:39;;;;;;;107.80;18.17;;;;;;;;;;5064120;28;20218;-78
2023/01/25 02:19:07;;;;;;;35.37;16.40;;;;;;;;;;5057253;28;20232;-77
2023/01/25 02:21:39;;;;;;;45.90;17.73;;;;;;;;;;5049127;28;20229;-77
2023/01/25 02:24:10;;;;;;;36.30;16.27;;;;;;;;;;5049884;28;20232;-78
2023/01/25 02:26:38;;;;;;;34.23;16.53;;;;;;;;;;5051209;28;20205;-77
2023/01/25 02:29:08;;;;;;;90.10;19.00;;;;;;;;;;5052421;28;20304;-74
2023/01/25 02:31:35;;;;;;;41.60;16.57;;;;;;;;;;5051753;28;20225;-76
2023/01/25 02:34:03;;;;;;;31.17;15.13;;;;;;;;;;5047935;28;20635;-78
2023/01/25 02:36:34;;;;;;;30.80;15.57;;;;;;;;;;5050166;28;20205;-77
2023/01/25 02:39:04;;;;;;;53.30;16.50;;;;;;;;;;5047676;28;20958;-76
2023/01/25 02:41:36;;;;;;;43.40;15.60;;;;;;;;;;5049322;28;20288;-78
2023/01/25 02:44:08;;;;;;;57.27;17.10;;;;;;;;;;5048654;28;20205;-75
2023/01/25 02:46:36;;;;;;;42.13;14.67;;;;;;;;;;5048276;28;20203;-77
2023/01/25 02:49:05;;;;;;;133.60;17.60;;;;;;;;;;5049834;28;20206;-77
2023/01/25 02:51:33;;;;;;;84.60;17.80;;;;;;;;;;5049374;28;20231;-77
2023/01/25 02:54:01;;;;;;;35.60;16.57;;;;;;;;;;5056821;28;20217;-76
2023/01/25 02:56:28;;;;;;;57.93;18.40;;;;;;;;;;5048727;28;20209;-76
2023/01/25 02:58:55;;;;;;;66.43;17.40;;;;;;;;;;5051892;28;20222;-76
2023/01/25 03:01:23;;;;;;;72.70;18.03;;;;;;;;;;5047333;28;20799;-78
2023/01/25 03:03:50;;;;;;;163.73;21.43;;;;;;;;;;5051243;28;20686;-76
2023/01/25 03:06:18;;;;;;;96.03;17.70;;;;;;;;;;5051499;28;20207;-78
2023/01/25 03:08:45;;;;;;;37.47;15.97;;;;;;;;;;5046132;28;20226;-75
2023/01/25 03:11:12;;;;;;;90.43;18.47;;;;;;;;;;5052974;28;20228;-77
2023/01/25 03:13:40;;;;;;;119.17;17.70;;;;;;;;;;5048531;28;20667;-76
2023/01/25 03:16:08;;;;;;;87.43;17.57;;;;;;;;;;5057780;28;20198;-77
2023/01/25 03:18:36;;;;;;;84.00;18.10;;;;;;;;;;5048639;28;20205;-77
2023/01/25 03:21:04;;;;;;;129.57;21.03;;;;;;;;;;5054708;28;20642;-77
2023/01/25 03:23:32;;;;;;;168.50;20.13;;;;;;;;;;5047385;28;20588;-77
2023/01/25 03:26:09;;;;;;;78.00;15.73;;;;;;;;;;5055651;28;20205;-77
2023/01/25 03:28:37;;;;;;;90.37;16.37;;;;;;;;;;5050624;28;20258;-76
2023/01/25 03:31:05;;;;;;;124.57;20.50;;;;;;;;;;5051605;28;20228;-77
2023/01/25 03:33:32;;;;;;;106.70;19.50;;;;;;;;;;5055046;28;20612;-78
2023/01/25 03:35:59;;;;;;;55.33;15.50;;;;;;;;;;5064977;28;20235;-78
2023/01/25 03:38:27;;;;;;;52.93;15.73;;;;;;;;;;5065416;28;20258;-78
2023/01/25 03:40:54;;;;;;;53.60;16.37;;;;;;;;;;5075884;28;20765;-77
2023/01/25 03:43:22;;;;;;;62.60;20.13;;;;;;;;;;5066719;28;20970;-77
2023/01/25 03:45:56;;;;;;;77.17;17.33;;;;;;;;;;5055287;28;20679;-78
2023/01/25 03:48:24;;;;;;;47.17;16.43;;;;;;;;;;5050758;28;20216;-77
2023/01/25 03:50:52;;;;;;;55.43;16.13;;;;;;;;;;5051117;28;20228;-76
2023/01/25 03:53:28;;;;;;;34.53;15.10;;;;;;;;;;5051251;28;20301;-77
2023/01/25 03:55:57;;;;;;;42.27;16.07;;;;;;;;;;5049160;28;20209;-76
2023/01/25 03:58:24;;;;;;;39.93;16.50;;;;;;;;;;5051963;28;20202;-77
2023/01/25 04:00:57;;;;;;;88.50;17.93;;;;;;;;;;5048598;28;20237;-76
2023/01/25 04:03:24;;;;;;;44.90;15.40;;;;;;;;;;5049422;28;20284;-77
2023/01/25 04:05:56;;;;;;;58.27;16.53;;;;;;;;;;5065997;28;20206;-77
2023/01/25 04:08:24;;;;;;;34.37;15.40;;;;;;;;;;5064479;28;20193;-76
2023/01/25 04:10:52;;;;;;;48.43;15.97;;;;;;;;;;5065573;28;20222;-77
2023/01/25 04:13:20;;;;;;;42.83;15.83;;;;;;;;;;5061500;28;20237;-77
2023/01/25 04:15:47;;;;;;;134.37;18.43;;;;;;;;;;5053623;28;20664;-77
2023/01/25 04:18:15;;;;;;;45.10;16.23;;;;;;;;;;5051580;28;20209;-76
2023/01/25 04:20:42;;;;;;;41.63;15.50;;;;;;;;;;5049634;28;20233;-77
2023/01/25 04:23:10;;;;;;;46.83;16.07;;;;;;;;;;5052271;28;20216;-77
2023/01/25 04:25:38;;;;;;;36.07;15.03;;;;;;;;;;5056041;28;20202;-77
2023/01/25 04:28:08;;;;;;;37.70;16.17;;;;;;;;;;5051943;28;20690;-76
2023/01/25 04:30:35;;;;;;;31.77;14.30;;;;;;;;;;5047960;28;20232;-78
2023/01/25 04:33:05;;;;;;;29.30;13.93;;;;;;;;;;5046865;28;20211;-77
2023/01/25 04:35:32;;;;;;;122.33;19.47;;;;;;;;;;5053565;28;20248;-78
2023/01/25 04:38:01;;;;;;;80.27;16.33;;;;;;;;;;5044563;28;20209;-76
2023/01/25 04:40:28;;;;;;;175.70;18.70;;;;;;;;;;5048258;28;20601;-77
2023/01/25 04:42:55;;;;;;;51.10;16.53;;;;;;;;;;5045942;28;20212;-76
2023/01/25 04:45:23;;;;;;;67.33;17.30;;;;;;;;;;5045287;28;20216;-78
2023/01/25 04:47:56;;;;;;;79.77;16.77;;;;;;;;;;5048542;28;20212;-76
2023/01/25 04:50:24;;;;;;;115.50;17.80;;;;;;;;;;5046109;28;20225;-77
2023/01/25 04:52:51;;;;;;;107.23;20.60;;;;;;;;;;5051955;28;20233;-77
2023/01/25 04:55:18;;;;;;;38.27;16.10;;;;;;;;;;5046785;28;20341;-78
2023/01/25 04:57:49;;;;;;;36.63;15.97;;;;;;;;;;5048260;28;20825;-78
2023/01/25 05:00:17;;;;;;;42.70;16.83;;;;;;;;;;5044623;28;20332;-76
2023/01/25 05:02:44;;;;;;;76.73;18.07;;;;;;;;;;5050539;28;20197;-76
2023/01/25 05:05:11;;;;;;;76.97;31.27;;;;;;;;;;5051403;28;20213;-77
2023/01/25 05:07:39;;;;;;;46.73;22.33;;;;;;;;;;5042472;28;20216;-74
2023/01/25 05:10:06;;;;;;;62.43;19.63;;;;;;;;;;5045467;28;20212;-76
2023/01/25 05:12:34;;;;;;;55.03;19.37;;;;;;;;;;5045141;28;20211;-77
2023/01/25 05:15:01;;;;;;;114.93;22.53;;;;;;;;;;5046528;28;20304;-76
2023/01/25 05:17:28;;;;;;;69.13;18.63;;;;;;;;;;5048885;28;20704;-76
2023/01/25 05:19:55;;;;;;;98.20;21.37;;;;;;;;;;5046225;28;20230;-77
2023/01/25 05:22:23;;;;;;;78.20;19.37;;;;;;;;;;5050069;28;20223;-76
2023/01/25 05:24:50;;;;;;;47.87;18.43;;;;;;;;;;5047174;28;20429;-76
2023/01/25 05:27:19;;;;;;;46.00;17.77;;;;;;;;;;5047944;28;20221;-76
2023/01/25 05:29:46;;;;;;;95.80;18.07;;;;;;;;;;5048616;28;20202;-77
2023/01/25 05:32:15;;;;;;;34.73;16.93;;;;;;;;;;5052409;28;20705;-77
2023/01/25 05:34:42;;;;;;;57.93;16.10;;;;;;;;;;5062056;28;20294;-78
2023/01/25 05:37:10;;;;;;;59.37;16.70;;;;;;;;;;5067032;28;20209;-77
2023/01/25 05:39:37;;;;;;;56.40;15.77;;;;;;;;;;5067514;28;20289;-76
2023/01/25 05:42:10;;;;;;;56.33;16.67;;;;;;;;;;5070843;28;20312;-78
2023/01/25 05:44:37;;;;;;;33.03;15.33;;;;;;;;;;5050961;28;20201;-75
2023/01/25 05:47:05;;;;;;;34.17;15.10;;;;;;;;;;5047426;28;20205;-78
2023/01/25 05:49:32;;;;;;;38.30;15.10;;;;;;;;;;5046067;28;20202;-74
2023/01/25 05:51:59;;;;;;;38.33;15.87;;;;;;;;;;5050370;28;20233;-76
2023/01/25 05:54:27;;;;;;;90.50;18.23;;;;;;;;;;5049404;28;20205;-76
2023/01/25 05:56:54;;;;;;;48.53;15.90;;;;;;;;;;5053797;28;20209;-76
2023/01/25 05:59:21;;;;;;;213.40;24.10;;;;;;;;;;5044172;28;20224;-74
2023/01/25 06:01:48;;;;;;;135.53;21.77;;;;;;;;;;5051498;28;21971;-77
2023/01/25 06:04:15;;;;;;;95.90;16.77;;;;;;;;;;5055223;28;20207;-78
2023/01/25 06:06:42;;;;;;;39.70;16.10;;;;;;;;;;5048889;28;20216;-74
2023/01/25 06:09:11;;;;;;;45.57;15.80;;;;;;;;;;5049524;28;20198;-76
2023/01/25 06:11:38;;;;;;;84.70;16.20;;;;;;;;;;5051096;28;20296;-77
2023/01/25 06:14:06;;;;;;;63.43;16.57;;;;;;;;;;5047525;28;20210;-78
2023/01/25 06:16:33;;;;;;;38.07;14.83;;;;;;;;;;5050484;28;20268;-76
2023/01/25 06:19:00;;;;;;;67.13;16.83;;;;;;;;;;5046791;28;20209;-77
2023/01/25 06:21:27;;;;;;;90.97;17.27;;;;;;;;;;5049600;28;20284;-76
2023/01/25 06:23:55;;;;;;;75.43;18.80;;;;;;;;;;5053749;28;20266;-76
2023/01/25 06:26:22;;;;;;;55.17;18.37;;;;;;;;;;5047189;28;20667;-76
2023/01/25 06:28:49;;;;;;;70.27;17.77;;;;;;;;;;5048966;28;20220;-77
2023/01/25 06:31:18;;;;;;;48.70;16.40;;;;;;;;;;5046254;28;20260;-75
2023/01/25 06:33:49;;;;;;;46.30;15.33;;;;;;;;;;5049408;28;20205;-74
2023/01/25 06:36:18;;;;;;;42.23;15.63;;;;;;;;;;5049096;28;20639;-76
2023/01/25 06:38:52;;;;;;;34.90;14.77;;;;;;;;;;5048827;28;20202;-74
2023/01/25 06:41:19;;;;;;;35.07;15.37;;;;;;;;;;5043945;28;20232;-77
2023/01/25 06:43:49;;;;;;;35.20;15.30;;;;;;;;;;5048638;28;20270;-74
2023/01/25 06:46:16;;;;;;;39.47;15.23;;;;;;;;;;5050194;28;20614;-75
2023/01/25 06:48:44;;;;;;;37.20;14.37;;;;;;;;;;5044741;28;20209;-76
2023/01/25 06:51:12;;;;;;;38.07;15.00;;;;;;;;;;5049153;28;20324;-76
2023/01/25 06:53:41;;;;;;;56.83;13.93;;;;;;;;;;5041993;28;20341;-76
2023/01/25 06:56:10;;;;;;;27.07;13.20;;;;;;;;;;5047492;28;20261;-73
2023/01/25 06:58:38;;;;;;;28.93;13.43;;;;;;;;;;5045843;28;20690;-76
2023/01/25 07:01:07;;;;;;;34.50;15.37;;;;;;;;;;5043633;28;20225;-77
2023/01/25 07:03:34;;;;;;;41.97;15.77;;;;;;;;;;5047993;28;20816;-76
2023/01/25 07:06:03;;;;;;;34.37;13.03;;;;;;;;;;5046168;28;20237;-73
2023/01/25 07:08:31;;;;;;;35.83;14.83;;;;;;;;;;5050226;28;20276;-77
2023/01/25 07:11:02;;;;;;;32.33;15.70;;;;;;;;;;5043511;28;20252;-78
2023/01/25 07:13:30;;;;;;;35.97;15.60;;;;;;;;;;5052787;28;20284;-76
2023/01/25 07:15:58;;;;;;;41.33;15.50;;;;;;;;;;5050877;28;20205;-77
2023/01/25 07:18:26;;;;;;;51.00;14.67;;;;;;;;;;5052569;28;20210;-73
2023/01/25 07:20:53;;;;;;;38.33;16.30;;;;;;;;;;5051939;28;20229;-77
2023/01/25 07:23:20;;;;;;;151.57;16.80;;;;;;;;;;5053102;28;20301;-76
2023/01/25 07:25:48;;;;;;;30.90;15.20;;;;;;;;;;5053666;28;20338;-74
2023/01/25 07:28:16;;;;;;;83.77;19.63;;;;;;;;;;5048927;28;20205;-76
2023/01/25 07:30:43;;;;;;;65.87;16.67;;;;;;;;;;5050168;28;20230;-76
2023/01/25 07:33:11;;;;;;;73.93;14.53;;;;;;;;;;5049564;28;20931;-77
2023/01/25 07:35:38;;;;;;;66.17;16.27;;;;;;;;;;5052400;28;20221;-77
2023/01/25 07:38:05;;;;;;;45.23;16.43;;;;;;;;;;5068064;28;20677;-77
2023/01/25 07:40:32;;;;;;;28.30;13.23;;;;;;;;;;5070844;28;20723;-78
2023/01/25 07:43:00;;;;;;;36.83;13.30;;;;;;;;;;5067922;28;20721;-77
2023/01/25 07:45:29;;;;;;;44.20;13.63;;;;;;;;;;5070288;28;20204;-76
2023/01/25 07:48:00;;;;;;;29.43;12.03;;;;;;;;;;5049188;28;20205;-77
2023/01/25 07:50:27;;;;;;;31.80;11.60;;;;;;;;;;5048490;28;20249;-76
2023/01/25 07:52:54;;;;;;;27.40;11.70;;;;;;;;;;5048006;28;20236;-76
2023/01/25 07:55:22;;;;;;;33.37;12.83;;;;;;;;;;5049567;28;20216;-74
2023/01/25 07:57:54;;;;;;;32.97;13.73;;;;;;;;;;5055900;28;20649;-77
2023/01/25 08:00:21;;;;;;;37.57;12.13;;;;;;;;;;5046167;28;20241;-77
2023/01/25 08:02:51;;;;;;;23.80;12.80;;;;;;;;;;5052029;28;20214;-77
2023/01/25 08:05:18;;;;;;;36.73;13.97;;;;;;;;;;5062133;28;20261;-74
2023/01/25 08:07:46;;;;;;;24.93;13.13;;;;;;;;;;5069398;28;20285;-78
2023/01/25 08:10:13;;;;;;;30.27;12.60;;;;;;;;;;5073603;28;20670;-77
2023/01/25 08:12:44;;;;;;;36.63;11.07;;;;;;;;;;5074938;28;20202;-78
2023/01/25 08:15:12;;;;;;;62.93;12.17;;;;;;;;;;5064894;28;20824;-77
2023/01/25 08:17:40;;;;;;;31.60;11.93;;;;;;;;;;5050972;28;20606;-77
2023/01/25 08:20:08;;;;;;;22.03;10.90;;;;;;;;;;5044423;28;20214;-76
2023/01/25 08:22:35;;;;;;;49.90;13.40;;;;;;;;;;5049678;28;20252;-76
2023/01/25 08:25:03;;;;;;;48.70;13.07;;;;;;;;;;5051015;28;20209;-78
2023/01/25 08:27:30;;;;;;;24.83;11.83;;;;;;;;;;5046461;28;20210;-75
2023/01/25 08:29:57;;;;;;;29.83;11.20;;;;;;;;;;5052339;28;20220;-77
2023/01/25 08:32:24;;;;;;;44.40;12.83;;;;;;;;;;5044951;28;20206;-77
2023/01/25 08:34:52;;;;;;;22.13;11.00;;;;;;;;;;5051857;28;20212;-76
2023/01/25 08:37:19;;;;;;;29.83;11.87;;;;;;;;;;5044924;28;20205;-75
2023/01/25 08:39:47;;;;;;;23.30;12.23;;;;;;;;;;5050658;28;20220;-77
2023/01/25 08:42:14;;;;;;;35.90;12.27;;;;;;;;;;5048121;28;20240;-77
2023/01/25 08:44:41;;;;;;;25.77;12.07;;;;;;;;;;5052856;28;20662;-77
2023/01/25 08:47:08;;;;;;;52.33;14.23;;;;;;;;;;5045151;28;20214;-78
2023/01/25 08:49:37;;;;;;;50.87;16.97;;;;;;;;;;5049509;28;20289;-76
2023/01/25 08:52:04;;;;;;;38.67;15.63;;;;;;;;;;5047724;28;20745;-76
2023/01/25 08:54:31;;;;;;;51.43;12.63;;;;;;;;;;5050213;28;20275;-77
2023/01/25 08:56:58;;;;;;;61.00;10.83;;;;;;;;;;5047735;28;20336;-76
2023/01/25 08:59:26;;;;;;;57.97;15.57;;;;;;;;;;5054760;28;20578;-77
2023/01/25 09:01:53;;;;;;;35.30;11.43;;;;;;;;;;5043808;28;20229;-77
2023/01/25 09:04:20;;;;;;;30.47;11.67;;;;;;;;;;5054279;28;20202;-76
2023/01/25 09:06:47;;;;;;;23.97;12.03;;;;;;;;;;5048353;28;20205;-76
2023/01/25 09:09:15;;;;;;;25.33;11.17;;;;;;;;;;5054179;28;20198;-74
2023/01/25 09:11:42;;;;;;;20.13;11.27;;;;;;;;;;5048070;28;20232;-75
2023/01/25 09:14:09;;;;;;;19.70;10.83;;;;;;;;;;5051883;28;20213;-73
2023/01/25 09:16:36;;;;;;;25.53;11.20;;;;;;;;;;5046633;28;20297;-78
2023/01/25 09:19:04;;;;;;;33.80;10.90;;;;;;;;;;5051155;28;20208;-76
2023/01/25 09:21:35;;;;;;;22.07;11.60;;;;;;;;;;5048505;28;20780;-75
2023/01/25 09:24:03;;;;;;;19.63;10.63;;;;;;;;;;5049913;28;20220;-78
2023/01/25 09:26:33;;;;;;;58.07;13.90;;;;;;;;;;5051384;28;20209;-74
2023/01/25 09:29:01;;;;;;;55.73;10.37;;;;;;;;;;5046682;28;20201;-76
2023/01/25 09:31:28;;;;;;;30.17;11.53;;;;;;;;;;5052399;28;20268;-76
2023/01/25 09:33:57;;;;;;;67.87;12.20;;;;;;;;;;5057697;28;20281;-77
2023/01/25 09:36:24;;;;;;;30.73;10.43;;;;;;;;;;5059873;28;20301;-76
2023/01/25 09:38:52;;;;;;;22.37;10.50;;;;;;;;;;5057538;28;20293;-77
2023/01/25 09:41:25;;;;;;;19.53;11.33;;;;;;;;;;5058969;28;20218;-75
2023/01/25 09:44:11;;;;;;;32.30;10.47;;;;;;;;;;5056058;28;20210;-75
2023/01/25 09:46:47;;;;;;;21.53;10.83;;;;;;;;;;5051810;28;20217;-77
2023/01/25 09:49:30;;;;;;;20.50;11.27;;;;;;;;;;5051341;28;20202;-76
2023/01/25 09:51:57;;;;;;;19.53;10.63;;;;;;;;;;5048305;28;20442;-77
2023/01/25 09:54:27;;;;;;;22.53;10.27;;;;;;;;;;5043855;28;20220;-76
2023/01/25 09:56:58;;;;;;;29.77;9.97;;;;;;;;;;5047973;28;20279;-75
2023/01/25 09:59:29;;;;;;;17.17;10.27;;;;;;;;;;5043619;28;20237;-76
2023/01/25 10:01:59;;;;;;;18.23;10.43;;;;;;;;;;5049790;28;20226;-76
2023/01/25 10:04:32;;;;;;;20.70;10.97;;;;;;;;;;5052207;28;20202;-76
2023/01/25 10:07:04;;;;;;;35.33;10.93;;;;;;;;;;5053559;28;20200;-75
2023/01/25 10:09:37;;;;;;;25.70;9.80;;;;;;;;;;5046418;28;20220;-77
2023/01/25 10:12:11;;;;;;;19.00;10.00;;;;;;;;;;5054934;28;20293;-77
2023/01/25 10:14:38;;;;;;;19.07;11.53;;;;;;;;;;5055033;28;20214;-76
2023/01/25 10:17:09;;;;;;;24.60;10.70;;;;;;;;;;5048264;28;20219;-75
2023/01/25 10:19:39;;;;;;;22.67;10.13;;;;;;;;;;5050819;28;20663;-77
2023/01/25 10:22:19;;;;;;;20.37;11.03;;;;;;;;;;5054806;28;22302;-76
2023/01/25 10:24:59;;;;;;;31.57;11.00;;;;;;;;;;5051253;28;20205;-77
2023/01/25 10:27:45;;;;;;;17.70;10.47;;;;;;;;;;5046596;28;20209;-77
2023/01/25 10:30:31;;;;;;;18.43;9.97;;;;;;;;;;5048284;28;20212;-77
2023/01/25 10:33:00;;;;;;;19.90;10.10;;;;;;;;;;5052516;28;20201;-77
2023/01/25 10:35:35;;;;;;;17.93;9.33;;;;;;;;;;5046456;28;20209;-77
2023/01/25 10:38:27;;;;;;;17.47;9.83;;;;;;;;;;5048111;28;20693;-74
2023/01/25 10:41:07;;;;;;;26.00;9.50;;;;;;;;;;5044115;28;20241;-76
2023/01/25 10:43:34;;;;;;;19.77;9.70;;;;;;;;;;5049898;28;20579;-78
2023/01/25 10:46:04;;;;;;;20.13;9.97;;;;;;;;;;5044520;28;20210;-74
2023/01/25 10:48:36;;;;;;;16.07;9.90;;;;;;;;;;5051052;28;20210;-76
2023/01/25 10:51:03;;;;;;;14.50;9.30;;;;;;;;;;5049832;28;20225;-77
2023/01/25 10:53:35;;;;;;;20.27;9.43;;;;;;;;;;5049996;28;20201;-77
2023/01/25 10:56:22;;;;;;;14.60;9.27;;;;;;;;;;5055283;28;20202;-77
2023/01/25 10:58:53;;;;;;;15.30;8.83;;;;;;;;;;5051999;28;20205;-74
2023/01/25 11:01:31;;;;;;;19.47;10.13;;;;;;;;;;5049509;28;20678;-75
2023/01/25 11:03:58;;;;;;;16.33;8.93;;;;;;;;;;5055948;28;20572;-76
2023/01/25 11:06:31;;;;;;;14.97;9.03;;;;;;;;;;5048343;28;20206;-76
2023/01/25 11:08:58;;;;;;;16.27;9.83;;;;;;;;;;5049747;28;20220;-76
2023/01/25 11:11:35;;;;;;;16.47;9.20;;;;;;;;;;5051745;28;20226;-78
2023/01/25 11:14:14;;;;;;;15.47;9.17;;;;;;;;;;5047992;28;20296;-76
2023/01/25 11:16:44;;;;;;;15.47;9.20;;;;;;;;;;5052762;28;20212;-77
2023/01/25 11:19:30;;;;;;;18.00;8.10;;;;;;;;;;5043926;28;20281;-77
2023/01/25 11:21:58;;;;;;;19.50;9.03;;;;;;;;;;5051452;28;21388;-76
2023/01/25 11:24:28;;;;;;;20.10;10.30;;;;;;;;;;5059199;28;20265;-75
2023/01/25 11:27:12;;;;;;;17.57;9.17;;;;;;;;;;5053319;28;20817;-76
2023/01/25 11:29:39;;;;;;;15.13;8.77;;;;;;;;;;5047420;28;20707;-76
2023/01/25 11:32:22;;;;;;;15.67;9.87;;;;;;;;;;5059937;28;20582;-76
2023/01/25 11:34:50;;;;;;;25.73;10.07;;;;;;;;;;5057724;28;20206;-78
2023/01/25 11:37:26;;;;;;;13.33;8.93;;;;;;;;;;5067928;28;20201;-77
2023/01/25 11:40:14;;;;;;;17.73;10.77;;;;;;;;;;5076123;28;20209;-75
2023/01/25 11:42:57;;;;;;;14.33;9.37;;;;;;;;;;5073489;28;20229;-77
2023/01/25 11:45:36;;;;;;;13.23;9.27;;;;;;;;;;5066953;28;20205;-77
2023/01/25 11:48:05;;;;;;;12.83;8.67;;;;;;;;;;5065090;28;20253;-77
2023/01/25 11:50:46;;;;;;;15.77;9.70;;;;;;;;;;5077809;28;20226;-76
2023/01/25 11:53:31;;;;;;;16.90;8.63;;;;;;;;;;5074157;28;20197;-76
2023/01/25 11:56:08;;;;;;;12.93;8.87;;;;;;;;;;5071887;28;20908;-75
2023/01/25 11:58:50;;;;;;;26.83;14.63;;;;;;;;;;5067525;28;20202;-78
2023/01/25 12:01:38;;;;;;;19.90;13.23;;;;;;;;;;5067800;28;20229;-78
2023/01/25 12:04:16;;;;;;;16.97;11.07;;;;;;;;;;5054651;28;20735;-75
2023/01/25 12:06:53;;;;;;;20.30;11.80;;;;;;;;;;5054886;28;20220;-76
2023/01/25 12:09:39;;;;;;;18.63;10.43;;;;;;;;;;5045620;28;20205;-76
2023/01/25 12:12:09;;;;;;;47.03;22.97;;;;;;;;;;5046306;28;20231;-75
2023/01/25 12:14:46;;;;;;;15.73;10.30;;;;;;;;;;5048200;28;20220;-75
2023/01/25 12:17:16;;;;;;;24.17;13.73;;;;;;;;;;5054579;28;20231;-77
2023/01/25 12:19:55;;;;;;;34.07;18.20;;;;;;;;;;5056286;28;20220;-78
2023/01/25 12:22:25;;;;;;;16.17;9.67;;;;;;;;;;5065147;28;20739;-76
2023/01/25 12:25:01;;;;;;;38.23;18.33;;;;;;;;;;5074496;28;20229;-77
2023/01/25 12:27:58;;;;;;;26.50;16.20;;;;;;;;;;5073001;28;20201;-77
2023/01/25 12:30:26;;;;;;;28.90;15.40;;;;;;;;;;5056749;28;20296;-77
2023/01/25 12:32:53;;;;;;;18.80;9.63;;;;;;;;;;5056949;28;20205;-79
2023/01/25 12:35:28;;;;;;;24.97;14.00;;;;;;;;;;5063049;28;20201;-78
2023/01/25 12:37:59;;;;;;;20.70;10.43;;;;;;;;;;5068252;28;20285;-76
2023/01/25 12:40:35;;;;;;;53.13;25.87;;;;;;;;;;5070092;28;20511;-77
2023/01/25 12:43:03;;;;;;;19.40;10.93;;;;;;;;;;5072163;28;20233;-74
2023/01/25 12:45:32;;;;;;;39.87;21.40;;;;;;;;;;5047269;28;20202;-77
2023/01/25 12:48:01;;;;;;;27.30;15.17;;;;;;;;;;5045735;28;20230;-76
2023/01/25 12:51:07;;;;;;;16.87;10.73;;;;;;;;;;5044847;28;20706;-74
2023/01/25 12:53:34;;;;;;;26.77;13.80;;;;;;;;;;4986768;28;20222;-75
2023/01/25 12:56:02;;;;;;;23.00;14.33;;;;;;;;;;4984982;28;20691;-77
2023/01/25 12:58:33;;;;;;;21.97;10.07;;;;;;;;;;5014589;28;20215;-78
2023/01/25 13:01:07;;;;;;;17.43;9.67;;;;;;;;;;5047763;28;20321;-76
2023/01/25 13:03:39;;;;;;;35.20;20.63;;;;;;;;;;5048318;28;20198;-75
2023/01/25 13:06:06;;;;;;;24.03;12.73;;;;;;;;;;5056803;28;20303;-78
2023/01/25 13:08:33;;;;;;;12.50;8.10;;;;;;;;;;5061966;28;20698;-76
2023/01/25 13:11:11;;;;;;;49.27;23.53;;;;;;;;;;5059383;28;20228;-77
2023/01/25 13:13:38;;;;;;;20.00;9.13;;;;;;;;;;5055426;28;20319;-78
2023/01/25 13:16:26;;;;;;;15.00;8.73;;;;;;;;;;5056925;28;20209;-77
2023/01/25 13:18:58;;;;;;;21.23;13.03;;;;;;;;;;5060554;28;20210;-77
2023/01/25 13:21:37;;;;;;;58.40;28.30;;;;;;;;;;5064645;28;20230;-77
2023/01/25 13:24:11;;;;;;;54.17;26.50;;;;;;;;;;5064112;28;20198;-75
2023/01/25 13:26:41;;;;;;;21.50;10.90;;;;;;;;;;5058060;28;20256;-78
2023/01/25 13:29:28;;;;;;;18.57;10.03;;;;;;;;;;5053807;28;20209;-78
2023/01/25 13:31:56;;;;;;;20.90;13.57;;;;;;;;;;5054728;28;20232;-76
2023/01/25 13:34:38;;;;;;;21.50;11.20;;;;;;;;;;5062733;28;20206;-77
2023/01/25 13:37:23;;;;;;;37.93;18.23;;;;;;;;;;5071653;28;20211;-76
2023/01/25 13:40:01;;;;;;;22.53;14.47;;;;;;;;;;5067139;28;20197;-76
2023/01/25 13:42:33;;;;;;;18.23;9.43;;;;;;;;;;5069759;28;20232;-77
2023/01/25 13:45:14;;;;;;;15.63;10.57;;;;;;;;;;5058926;28;20738;-76
2023/01/25 13:47:42;;;;;;;16.93;9.27;;;;;;;;;;5057541;28;20283;-76
2023/01/25 13:50:20;;;;;;;14.83;9.50;;;;;;;;;;5056608;28;20209;-75
2023/01/25 13:53:02;;;;;;;17.37;9.83;;;;;;;;;;5061624;28;20737;-76
2023/01/25 13:55:37;;;;;;;15.50;9.90;;;;;;;;;;5059456;28;20209;-78
2023/01/25 13:58:18;;;;;;;15.23;9.70;;;;;;;;;;5057172;28;20694;-76
2023/01/25 14:01:05;;;;;;;17.30;10.33;;;;;;;;;;5057783;28;20224;-77
2023/01/25 14:03:40;;;;;;;13.00;8.57;;;;;;;;;;5057172;28;20575;-76
2023/01/25 14:06:15;;;;;;;14.73;9.33;;;;;;;;;;5050700;28;20387;-75
2023/01/25 14:08:43;;;;;;;12.13;8.87;;;;;;;;;;5065264;28;20232;-77
2023/01/25 14:11:10;;;;;;;17.77;9.10;;;;;;;;;;5054765;28;20221;-77
2023/01/25 14:13:37;;;;;;;18.13;8.90;;;;;;;;;;5061760;28;20307;-77
2023/01/25 14:16:08;;;;;;;14.03;8.77;;;;;;;;;;5063940;28;20205;-77
2023/01/25 14:18:41;;;;;;;19.57;9.10;;;;;;;;;;5064371;28;20684;-77
2023/01/25 14:21:11;;;;;;;17.10;9.43;;;;;;;;;;5067896;28;20328;-77
2023/01/25 14:23:38;;;;;;;14.93;9.30;;;;;;;;;;5056542;28;20230;-78
2023/01/25 14:26:16;;;;;;;18.73;10.40;;;;;;;;;;5063556;28;20236;-78
2023/01/25 14:28:44;;;;;;;16.27;8.97;;;;;;;;;;5058841;28;20295;-76
2023/01/25 14:31:31;;;;;;;19.90;9.73;;;;;;;;;;5068125;28;20222;-77
2023/01/25 14:33:58;;;;;;;17.70;11.13;;;;;;;;;;5064535;28;20201;-77
2023/01/25 14:36:27;;;;;;;15.37;9.97;;;;;;;;;;5060715;28;20236;-77
2023/01/25 14:38:55;;;;;;;16.60;10.10;;;;;;;;;;5059398;28;20209;-76